createdAt,value
2022-10-26T00:00:05.775Z,984.96
2022-10-26T00:01:05.826Z,984.91
2022-10-26T00:02:05.912Z,984.91
2022-10-26T00:03:05.714Z,984.88
2022-10-26T00:04:05.715Z,984.80
2022-10-26T00:05:05.693Z,984.82
2022-10-26T00:06:05.691Z,984.81
2022-10-26T00:07:05.685Z,984.87
2022-10-26T00:08:05.656Z,984.84
2022-10-26T00:09:05.665Z,984.91
2022-10-26T00:10:05.633Z,984.84
2022-10-26T00:11:05.628Z,984.91
2022-10-26T00:12:05.625Z,984.93
2022-10-26T00:13:05.606Z,984.97
2022-10-26T00:14:05.608Z,984.94
2022-10-26T00:15:05.588Z,984.88
2022-10-26T00:16:05.581Z,984.95
2022-10-26T00:17:05.567Z,984.91
2022-10-26T00:18:05.554Z,984.89
2022-10-26T00:19:05.561Z,984.87
2022-10-26T00:20:05.528Z,984.93
2022-10-26T00:21:05.528Z,984.90
2022-10-26T00:22:05.508Z,984.96
2022-10-26T00:23:05.507Z,984.98
2022-10-26T00:24:05.548Z,984.97
2022-10-26T00:25:05.489Z,985.02
2022-10-26T00:26:05.467Z,985.00
2022-10-26T00:27:05.459Z,984.94
2022-10-26T00:28:05.439Z,984.97
2022-10-26T00:29:05.442Z,984.95
2022-10-26T00:30:05.419Z,984.95
2022-10-26T00:31:05.430Z,984.89
2022-10-26T00:32:05.400Z,984.94
2022-10-26T00:33:05.401Z,984.85
2022-10-26T00:34:05.379Z,984.89
2022-10-26T00:35:15.832Z,984.85
2022-10-26T00:36:06.378Z,984.86
2022-10-26T00:37:05.350Z,984.89
2022-10-26T00:38:05.335Z,984.91
2022-10-26T00:39:05.330Z,984.88
2022-10-26T00:40:05.313Z,984.85
2022-10-26T00:41:05.311Z,984.80
2022-10-26T00:42:05.292Z,984.84
2022-10-26T00:43:05.284Z,984.84
2022-10-26T00:44:05.352Z,984.84
2022-10-26T00:45:05.263Z,984.89
2022-10-26T00:46:05.251Z,984.87
2022-10-26T00:47:05.273Z,984.94
2022-10-26T00:48:05.231Z,984.95
2022-10-26T00:49:05.290Z,984.97
2022-10-26T00:50:05.214Z,984.91
2022-10-26T00:51:05.211Z,984.95
2022-10-26T00:52:05.192Z,984.96
2022-10-26T00:53:05.194Z,985.03
2022-10-26T00:54:05.182Z,985.00
2022-10-26T00:55:05.154Z,984.94
2022-10-26T00:56:05.144Z,984.96
2022-10-26T00:57:05.135Z,984.96
2022-10-26T00:58:05.124Z,984.99
2022-10-26T00:59:05.121Z,984.99
2022-10-26T01:00:05.115Z,984.94
2022-10-26T01:01:05.114Z,984.98
2022-10-26T01:02:05.098Z,985.02
2022-10-26T01:03:05.077Z,985.02
2022-10-26T01:04:05.178Z,985.00
2022-10-26T01:05:05.046Z,984.98
2022-10-26T01:06:05.036Z,984.97
2022-10-26T01:07:05.046Z,984.89
2022-10-26T01:08:05.017Z,984.93
2022-10-26T01:09:05.006Z,984.95
2022-10-26T01:10:05.024Z,984.88
2022-10-26T01:11:04.987Z,984.96
2022-10-26T01:12:04.994Z,984.91
2022-10-26T01:13:04.960Z,984.93
2022-10-26T01:14:04.969Z,984.96
2022-10-26T01:15:04.937Z,985.00
2022-10-26T01:16:04.936Z,984.99
2022-10-26T01:17:04.932Z,984.99
2022-10-26T01:18:04.908Z,984.89
2022-10-26T01:19:04.916Z,984.92
2022-10-26T01:20:04.889Z,984.90
2022-10-26T01:21:04.878Z,984.84
2022-10-26T01:22:04.887Z,984.87
2022-10-26T01:23:04.850Z,984.86
2022-10-26T01:24:04.851Z,984.92
2022-10-26T01:25:04.831Z,984.83
2022-10-26T01:26:04.840Z,984.79
2022-10-26T01:27:04.828Z,984.82
2022-10-26T01:28:04.800Z,984.77
2022-10-26T01:29:04.790Z,984.72
2022-10-26T01:30:04.781Z,984.71
2022-10-26T01:31:04.788Z,984.75
2022-10-26T01:32:04.759Z,984.71
2022-10-26T01:33:04.744Z,984.70
2022-10-26T01:34:04.740Z,984.66
2022-10-26T01:35:04.723Z,984.65
2022-10-26T01:36:04.723Z,984.59
2022-10-26T01:37:04.705Z,984.62
2022-10-26T01:38:04.699Z,984.61
2022-10-26T01:39:04.681Z,984.61
2022-10-26T01:40:04.682Z,984.60
2022-10-26T01:41:04.673Z,984.65
2022-10-26T01:42:04.670Z,984.63
2022-10-26T01:43:04.681Z,984.62
2022-10-26T01:44:04.635Z,984.58
2022-10-26T01:45:04.614Z,984.58
2022-10-26T01:46:04.613Z,984.53
2022-10-26T01:47:04.612Z,984.57
2022-10-26T01:48:04.604Z,984.59
2022-10-26T01:49:04.603Z,984.61
2022-10-26T01:50:04.566Z,984.65
2022-10-26T01:51:04.553Z,984.64
2022-10-26T01:52:04.553Z,984.58
2022-10-26T01:53:04.545Z,984.49
2022-10-26T01:54:04.525Z,984.50
2022-10-26T01:55:04.519Z,984.46
2022-10-26T01:56:04.506Z,984.47
2022-10-26T01:57:04.506Z,984.44
2022-10-26T01:58:04.479Z,984.52
2022-10-26T01:59:04.467Z,984.63
2022-10-26T02:00:04.487Z,984.62
2022-10-26T02:01:04.509Z,984.62
2022-10-26T02:02:04.437Z,984.55
2022-10-26T02:03:04.454Z,984.51
2022-10-26T02:04:04.460Z,984.49
2022-10-26T02:05:04.409Z,984.48
2022-10-26T02:06:04.397Z,984.45
2022-10-26T02:07:04.408Z,984.41
2022-10-26T02:08:04.368Z,984.36
2022-10-26T02:09:04.378Z,984.36
2022-10-26T02:10:04.369Z,984.33
2022-10-26T02:11:04.370Z,984.30
2022-10-26T02:12:04.351Z,984.21
2022-10-26T02:13:04.337Z,984.16
2022-10-26T02:14:04.343Z,984.16
2022-10-26T02:15:04.312Z,984.14
2022-10-26T02:16:04.300Z,984.22
2022-10-26T02:17:04.330Z,984.28
2022-10-26T02:18:04.260Z,984.33
2022-10-26T02:19:04.271Z,984.25
2022-10-26T02:20:04.259Z,984.26
2022-10-26T02:21:04.253Z,984.26
2022-10-26T02:22:04.221Z,984.24
2022-10-26T02:23:04.249Z,984.26
2022-10-26T02:24:04.262Z,984.27
2022-10-26T02:25:04.213Z,984.28
2022-10-26T02:26:04.223Z,984.35
2022-10-26T02:27:04.183Z,984.40
2022-10-26T02:28:04.172Z,984.47
2022-10-26T02:29:04.162Z,984.44
2022-10-26T02:30:04.173Z,984.50
2022-10-26T02:31:04.143Z,984.45
2022-10-26T02:32:04.113Z,984.48
2022-10-26T02:33:04.125Z,984.49
2022-10-26T02:34:04.112Z,984.47
2022-10-26T02:35:04.104Z,984.59
2022-10-26T02:36:04.087Z,984.59
2022-10-26T02:37:04.076Z,984.59
2022-10-26T02:38:04.077Z,984.63
2022-10-26T02:39:04.055Z,984.61
2022-10-26T02:40:04.046Z,984.66
2022-10-26T02:41:04.034Z,984.65
2022-10-26T02:42:04.015Z,984.74
2022-10-26T02:43:04.025Z,984.68
2022-10-26T02:44:04.007Z,984.71
2022-10-26T02:45:03.996Z,984.78
2022-10-26T02:46:03.986Z,984.79
2022-10-26T02:47:03.987Z,984.78
2022-10-26T02:48:03.946Z,984.78
2022-10-26T02:49:03.958Z,984.79
2022-10-26T02:50:03.940Z,984.75
2022-10-26T02:51:03.937Z,984.72
2022-10-26T02:52:03.918Z,984.63
2022-10-26T02:53:03.897Z,984.62
2022-10-26T02:54:03.898Z,984.61
2022-10-26T02:55:03.898Z,984.60
2022-10-26T02:56:03.881Z,984.57
2022-10-26T02:57:03.879Z,984.57
2022-10-26T02:58:03.840Z,984.60
2022-10-26T02:59:03.837Z,984.60
2022-10-26T03:00:03.866Z,984.67
2022-10-26T03:01:03.875Z,984.65
2022-10-26T03:02:03.798Z,984.69
2022-10-26T03:03:03.800Z,984.65
2022-10-26T03:04:03.861Z,984.59
2022-10-26T03:05:03.781Z,984.57
2022-10-26T03:06:04.050Z,984.71
2022-10-26T03:07:03.760Z,984.62
2022-10-26T03:08:03.731Z,984.69
2022-10-26T03:09:03.740Z,984.71
2022-10-26T03:10:03.729Z,984.76
2022-10-26T03:11:03.726Z,984.76
2022-10-26T03:12:03.729Z,984.77
2022-10-26T03:13:03.690Z,984.76
2022-10-26T03:14:03.669Z,984.81
2022-10-26T03:15:03.672Z,984.81
2022-10-26T03:16:04.383Z,984.87
2022-10-26T03:17:03.712Z,984.90
2022-10-26T03:18:03.710Z,984.90
2022-10-26T03:19:03.640Z,984.91
2022-10-26T03:20:03.610Z,984.93
2022-10-26T03:21:03.624Z,984.92
2022-10-26T03:22:03.592Z,984.91
2022-10-26T03:23:03.594Z,984.94
2022-10-26T03:24:03.584Z,984.91
2022-10-26T03:25:03.594Z,984.94
2022-10-26T03:26:03.564Z,984.92
2022-10-26T03:27:03.554Z,985.00
2022-10-26T03:28:03.544Z,984.93
2022-10-26T03:29:03.518Z,984.92
2022-10-26T03:30:03.515Z,984.98
2022-10-26T03:31:03.504Z,984.98
2022-10-26T03:32:03.485Z,985.01
2022-10-26T03:33:03.475Z,984.97
2022-10-26T03:34:03.454Z,985.00
2022-10-26T03:35:03.457Z,985.00
2022-10-26T03:36:03.446Z,985.00
2022-10-26T03:37:03.437Z,984.98
2022-10-26T03:38:03.427Z,984.97
2022-10-26T03:39:03.417Z,985.00
2022-10-26T03:40:03.403Z,985.11
2022-10-26T03:41:03.417Z,985.20
2022-10-26T03:42:03.370Z,985.22
2022-10-26T03:43:03.368Z,985.18
2022-10-26T03:44:03.358Z,985.15
2022-10-26T03:45:03.356Z,985.14
2022-10-26T03:46:03.347Z,985.13
2022-10-26T03:47:03.328Z,985.11
2022-10-26T03:48:03.321Z,985.04
2022-10-26T03:49:03.315Z,985.09
2022-10-26T03:50:03.401Z,985.08
2022-10-26T03:51:03.298Z,985.04
2022-10-26T03:52:03.267Z,985.02
2022-10-26T03:53:03.262Z,985.04
2022-10-26T03:54:03.240Z,985.00
2022-10-26T03:55:03.250Z,985.00
2022-10-26T03:56:03.228Z,984.95
2022-10-26T03:57:03.220Z,985.01
2022-10-26T03:58:03.210Z,985.07
2022-10-26T03:59:03.200Z,985.00
2022-10-26T04:00:03.210Z,985.00
2022-10-26T04:01:03.254Z,984.99
2022-10-26T04:02:03.151Z,984.86
2022-10-26T04:03:03.152Z,984.93
2022-10-26T04:04:03.193Z,984.96
2022-10-26T04:05:03.134Z,984.96
2022-10-26T04:06:03.111Z,984.93
2022-10-26T04:07:03.124Z,984.92
2022-10-26T04:08:03.186Z,984.92
2022-10-26T04:09:03.093Z,984.88
2022-10-26T04:10:03.075Z,984.91
2022-10-26T04:11:04.638Z,984.89
2022-10-26T04:12:03.060Z,984.87
2022-10-26T04:13:03.089Z,984.89
2022-10-26T04:14:03.042Z,984.91
2022-10-26T04:16:03.021Z,984.88
2022-10-26T04:17:03.723Z,984.80
2022-10-26T04:18:03.034Z,984.79
2022-10-26T04:19:02.982Z,984.69
2022-10-26T04:20:02.987Z,984.71
2022-10-26T04:21:02.966Z,984.67
2022-10-26T04:22:02.955Z,984.71
2022-10-26T04:23:02.957Z,984.70
2022-10-26T04:24:02.938Z,984.70
2022-10-26T04:25:02.919Z,984.70
2022-10-26T04:26:02.895Z,984.70
2022-10-26T04:27:02.910Z,984.65
2022-10-26T04:28:02.897Z,984.69
2022-10-26T04:29:02.887Z,984.66
2022-10-26T04:30:02.866Z,984.62
2022-10-26T04:31:02.863Z,984.67
2022-10-26T04:32:02.845Z,984.61
2022-10-26T04:33:02.848Z,984.66
2022-10-26T04:34:02.825Z,984.64
2022-10-26T04:35:02.821Z,984.60
2022-10-26T04:36:02.809Z,984.65
2022-10-26T04:37:02.815Z,984.68
2022-10-26T04:38:02.784Z,984.71
2022-10-26T04:39:02.758Z,984.77
2022-10-26T04:40:02.829Z,984.71
2022-10-26T04:41:02.751Z,984.82
2022-10-26T04:42:02.749Z,984.72
2022-10-26T04:43:02.739Z,984.71
2022-10-26T04:44:02.714Z,984.68
2022-10-26T04:45:02.726Z,984.72
2022-10-26T04:46:02.700Z,984.78
2022-10-26T04:47:02.710Z,984.79
2022-10-26T04:48:02.684Z,984.76
2022-10-26T04:49:02.660Z,984.83
2022-10-26T04:50:02.644Z,984.70
2022-10-26T04:51:02.637Z,984.80
2022-10-26T04:52:02.619Z,984.79
2022-10-26T04:53:02.630Z,984.83
2022-10-26T04:54:02.602Z,984.74
2022-10-26T04:55:02.599Z,984.61
2022-10-26T04:56:02.581Z,984.58
2022-10-26T04:57:02.581Z,984.64
2022-10-26T04:58:02.742Z,984.65
2022-10-26T04:59:02.551Z,984.67
2022-10-26T05:00:02.533Z,984.64
2022-10-26T05:01:02.571Z,984.65
2022-10-26T05:02:02.775Z,984.60
2022-10-26T05:03:02.513Z,984.60
2022-10-26T05:04:02.497Z,984.60
2022-10-26T05:06:02.484Z,984.62
2022-10-26T05:07:02.507Z,984.69
2022-10-26T05:08:02.465Z,984.64
2022-10-26T05:09:02.455Z,984.69
2022-10-26T05:10:02.441Z,984.68
2022-10-26T05:11:02.426Z,984.64
2022-10-26T05:12:02.431Z,984.67
2022-10-26T05:13:02.407Z,984.71
2022-10-26T05:14:02.405Z,984.68
2022-10-26T05:15:05.052Z,984.73
2022-10-26T05:16:03.365Z,984.79
2022-10-26T05:17:02.368Z,984.85
2022-10-26T05:18:02.357Z,984.76
2022-10-26T05:19:02.345Z,984.82
2022-10-26T05:20:02.340Z,984.78
2022-10-26T05:21:02.334Z,984.76
2022-10-26T05:22:02.318Z,984.75
2022-10-26T05:23:02.308Z,984.70
2022-10-26T05:24:02.450Z,984.75
2022-10-26T05:25:02.278Z,984.72
2022-10-26T05:26:02.278Z,984.73
2022-10-26T05:27:02.270Z,984.85
2022-10-26T05:28:02.238Z,984.83
2022-10-26T05:29:02.248Z,984.80
2022-10-26T05:30:02.313Z,984.86
2022-10-26T05:31:02.250Z,984.82
2022-10-26T05:32:02.200Z,984.88
2022-10-26T05:33:02.199Z,984.87
2022-10-26T05:34:02.200Z,984.89
2022-10-26T05:35:02.160Z,984.94
2022-10-26T05:36:02.169Z,984.92
2022-10-26T05:37:02.140Z,984.93
2022-10-26T05:38:02.150Z,984.90
2022-10-26T05:39:02.119Z,984.91
2022-10-26T05:40:02.131Z,984.93
2022-10-26T05:41:02.102Z,984.95
2022-10-26T05:42:02.092Z,984.95
2022-10-26T05:43:02.100Z,985.01
2022-10-26T05:44:02.093Z,985.02
2022-10-26T05:45:02.081Z,985.05
2022-10-26T05:46:02.070Z,985.06
2022-10-26T05:47:02.054Z,985.09
2022-10-26T05:48:03.040Z,985.09
2022-10-26T05:49:02.012Z,985.10
2022-10-26T05:50:02.019Z,985.06
2022-10-26T05:51:02.037Z,985.13
2022-10-26T05:52:01.990Z,985.09
2022-10-26T05:53:02.009Z,985.11
2022-10-26T05:54:01.975Z,985.13
2022-10-26T05:55:01.986Z,985.10
2022-10-26T05:56:04.897Z,985.17
2022-10-26T05:57:02.946Z,985.22
2022-10-26T05:58:01.935Z,985.16
2022-10-26T05:59:01.904Z,985.17
2022-10-26T06:00:01.937Z,985.22
2022-10-26T06:01:01.919Z,985.24
2022-10-26T06:02:02.127Z,985.24
2022-10-26T06:03:01.896Z,985.25
2022-10-26T06:04:01.866Z,985.21
2022-10-26T06:05:01.854Z,985.31
2022-10-26T06:06:04.024Z,985.24
2022-10-26T06:07:01.825Z,985.27
2022-10-26T06:08:01.836Z,985.32
2022-10-26T06:09:01.807Z,985.27
2022-10-26T06:10:01.812Z,985.33
2022-10-26T06:11:01.777Z,985.30
2022-10-26T06:12:01.790Z,985.29
2022-10-26T06:13:01.831Z,985.43
2022-10-26T06:14:01.776Z,985.46
2022-10-26T06:15:01.768Z,985.54
2022-10-26T06:16:01.870Z,985.54
2022-10-26T06:17:01.718Z,985.51
2022-10-26T06:18:01.711Z,985.58
2022-10-26T06:19:02.016Z,985.60
2022-10-26T06:20:01.757Z,985.57
2022-10-26T06:21:01.679Z,985.61
2022-10-26T06:22:01.670Z,985.66
2022-10-26T06:23:01.670Z,985.64
2022-10-26T06:24:01.648Z,985.75
2022-10-26T06:25:01.639Z,985.75
2022-10-26T06:26:01.734Z,985.74
2022-10-26T06:27:01.650Z,985.82
2022-10-26T06:28:01.621Z,985.76
2022-10-26T06:29:01.604Z,985.85
2022-10-26T06:30:01.590Z,985.90
2022-10-26T06:31:01.561Z,985.85
2022-10-26T06:32:01.571Z,985.93
2022-10-26T06:33:06.199Z,985.90
2022-10-26T06:34:02.552Z,985.89
2022-10-26T06:35:04.871Z,985.90
2022-10-26T06:36:02.533Z,985.81
2022-10-26T06:37:01.521Z,985.84
2022-10-26T06:38:01.518Z,985.84
2022-10-26T06:39:01.534Z,985.85
2022-10-26T06:40:01.481Z,985.90
2022-10-26T06:41:01.462Z,985.85
2022-10-26T06:42:01.456Z,985.82
2022-10-26T06:43:01.453Z,985.83
2022-10-26T06:44:01.432Z,985.85
2022-10-26T06:45:01.472Z,985.85
2022-10-26T06:46:01.414Z,985.87
2022-10-26T06:47:01.457Z,985.93
2022-10-26T06:48:01.416Z,985.90
2022-10-26T06:49:01.388Z,985.88
2022-10-26T06:50:01.386Z,985.89
2022-10-26T06:51:01.355Z,986.02
2022-10-26T06:52:01.344Z,986.00
2022-10-26T06:53:01.335Z,985.96
2022-10-26T06:54:01.345Z,985.98
2022-10-26T06:55:01.547Z,986.09
2022-10-26T06:56:01.316Z,986.02
2022-10-26T06:57:01.285Z,986.06
2022-10-26T06:58:01.279Z,986.04
2022-10-26T06:59:03.466Z,986.06
2022-10-26T07:00:02.269Z,986.00
2022-10-26T07:01:01.247Z,986.02
2022-10-26T07:02:04.215Z,986.04
2022-10-26T07:03:02.313Z,986.06
2022-10-26T07:04:01.246Z,986.09
2022-10-26T07:05:01.215Z,986.06
2022-10-26T07:06:01.210Z,986.05
2022-10-26T07:07:01.188Z,986.10
2022-10-26T07:08:01.178Z,986.11
2022-10-26T07:09:01.187Z,986.12
2022-10-26T07:10:01.156Z,986.17
2022-10-26T07:11:01.149Z,986.18
2022-10-26T07:12:01.130Z,986.20
2022-10-26T07:13:01.138Z,986.19
2022-10-26T07:14:01.120Z,986.22
2022-10-26T07:15:01.171Z,986.22
2022-10-26T07:16:01.107Z,986.24
2022-10-26T07:17:01.093Z,986.15
2022-10-26T07:18:01.091Z,986.13
2022-10-26T07:19:01.059Z,986.12
2022-10-26T07:20:01.041Z,986.14
2022-10-26T07:21:01.055Z,986.18
2022-10-26T07:22:01.021Z,986.15
2022-10-26T07:23:01.001Z,986.19
2022-10-26T07:24:01.012Z,986.15
2022-10-26T07:25:03.061Z,986.18
2022-10-26T07:26:01.002Z,986.21
2022-10-26T07:27:00.962Z,986.27
2022-10-26T07:28:00.973Z,986.22
2022-10-26T07:29:00.942Z,986.23
2022-10-26T07:30:00.973Z,986.34
2022-10-26T07:31:00.934Z,986.30
2022-10-26T07:32:00.932Z,986.23
2022-10-26T07:33:00.894Z,986.28
2022-10-26T07:34:00.914Z,986.32
2022-10-26T07:35:00.916Z,986.33
2022-10-26T07:36:00.885Z,986.32
2022-10-26T07:37:00.855Z,986.41
2022-10-26T07:38:00.853Z,986.43
2022-10-26T07:39:00.864Z,986.46
2022-10-26T07:40:05.604Z,986.41
2022-10-26T07:41:01.825Z,986.42
2022-10-26T07:42:00.819Z,986.47
2022-10-26T07:43:00.803Z,986.50
2022-10-26T07:44:00.815Z,986.50
2022-10-26T07:45:00.794Z,986.53
2022-10-26T07:46:00.777Z,986.47
2022-10-26T07:47:00.760Z,986.55
2022-10-26T07:48:00.760Z,986.56
2022-10-26T07:49:00.748Z,986.58
2022-10-26T07:50:00.739Z,986.53
2022-10-26T07:51:02.841Z,986.57
2022-10-26T07:52:00.708Z,986.55
2022-10-26T07:53:00.687Z,986.61
2022-10-26T07:54:00.689Z,986.58
2022-10-26T07:55:00.678Z,986.60
2022-10-26T07:56:00.669Z,986.54
2022-10-26T07:57:00.694Z,986.58
2022-10-26T07:58:01.186Z,986.57
2022-10-26T07:59:00.628Z,986.50
2022-10-26T08:00:00.630Z,986.56
2022-10-26T08:01:00.674Z,986.56
2022-10-26T08:02:00.639Z,986.56
2022-10-26T08:03:00.590Z,986.49
2022-10-26T08:04:00.597Z,986.59
2022-10-26T08:05:00.573Z,986.57
2022-10-26T08:06:00.580Z,986.52
2022-10-26T08:07:00.531Z,986.49
2022-10-26T08:08:00.530Z,986.52
2022-10-26T08:09:00.524Z,986.54
2022-10-26T08:10:00.521Z,986.51
2022-10-26T08:11:00.515Z,986.52
2022-10-26T08:12:00.483Z,986.55
2022-10-26T08:13:00.482Z,986.58
2022-10-26T08:14:00.481Z,986.56
2022-10-26T08:15:00.453Z,986.58
2022-10-26T08:16:00.484Z,986.63
2022-10-26T08:17:00.442Z,986.62
2022-10-26T08:18:00.423Z,986.62
2022-10-26T08:19:00.413Z,986.63
2022-10-26T08:20:00.424Z,986.66
2022-10-26T08:21:10.128Z,986.65
2022-10-26T08:22:01.409Z,986.70
2022-10-26T08:23:00.374Z,986.69
2022-10-26T08:24:00.393Z,986.69
2022-10-26T08:25:00.363Z,986.69
2022-10-26T08:26:00.343Z,986.70
2022-10-26T08:27:00.336Z,986.66
2022-10-26T08:28:00.327Z,986.63
2022-10-26T08:29:00.335Z,986.59
2022-10-26T08:30:00.321Z,986.63
2022-10-26T08:31:00.284Z,986.59
2022-10-26T08:32:00.285Z,986.57
2022-10-26T08:33:00.257Z,986.56
2022-10-26T08:34:00.302Z,986.55
2022-10-26T08:35:00.238Z,986.57
2022-10-26T08:36:00.378Z,986.55
2022-10-26T08:37:00.226Z,986.61
2022-10-26T08:38:00.221Z,986.60
2022-10-26T08:40:02.949Z,986.53
2022-10-26T08:41:00.188Z,986.53
2022-10-26T08:42:00.170Z,986.47
2022-10-26T08:43:00.158Z,986.62
2022-10-26T08:44:00.167Z,986.58
2022-10-26T08:45:00.137Z,986.61
2022-10-26T08:46:00.149Z,986.68
2022-10-26T08:47:00.108Z,986.64
2022-10-26T08:48:00.147Z,986.69
2022-10-26T08:49:00.089Z,986.72
2022-10-26T08:50:00.105Z,986.74
2022-10-26T08:51:00.088Z,986.69
2022-10-26T08:52:00.069Z,986.71
2022-10-26T08:53:00.090Z,986.69
2022-10-26T08:54:00.062Z,986.78
2022-10-26T08:55:00.054Z,986.76
2022-10-26T08:56:00.051Z,986.89
2022-10-26T08:57:00.013Z,986.91
2022-10-26T08:58:00.013Z,986.81
2022-10-26T08:59:00.003Z,986.89
2022-10-26T08:59:59.981Z,986.90
2022-10-26T09:01:00.050Z,986.93
2022-10-26T09:02:00.038Z,986.88
2022-10-26T09:02:59.952Z,986.90
2022-10-26T09:04:59.913Z,986.89
2022-10-26T09:05:59.944Z,986.89
2022-10-26T09:06:59.904Z,986.88
2022-10-26T09:07:59.925Z,986.84
2022-10-26T09:08:59.875Z,986.85
2022-10-26T09:09:59.869Z,986.87
2022-10-26T09:10:59.897Z,986.87
2022-10-26T09:11:59.855Z,986.87
2022-10-26T09:12:59.825Z,986.89
2022-10-26T09:14:00.073Z,986.94
2022-10-26T09:14:59.824Z,986.98
2022-10-26T09:15:59.857Z,987.03
2022-10-26T09:16:59.822Z,986.95
2022-10-26T09:17:59.798Z,987.01
2022-10-26T09:19:01.858Z,987.04
2022-10-26T09:19:59.772Z,987.06
2022-10-26T09:20:59.760Z,986.99
2022-10-26T09:21:59.747Z,987.01
2022-10-26T09:22:59.718Z,987.07
2022-10-26T09:23:59.746Z,987.03
2022-10-26T09:25:02.860Z,987.07
2022-10-26T09:26:00.818Z,987.07
2022-10-26T09:26:59.725Z,987.15
2022-10-26T09:27:59.709Z,987.13
2022-10-26T09:28:59.670Z,987.11
2022-10-26T09:29:59.661Z,987.14
2022-10-26T09:30:59.637Z,987.12
2022-10-26T09:31:59.641Z,987.14
2022-10-26T09:32:59.640Z,987.18
2022-10-26T09:33:59.610Z,987.22
2022-10-26T09:34:59.610Z,987.18
2022-10-26T09:35:59.687Z,987.21
2022-10-26T09:36:59.592Z,987.24
2022-10-26T09:37:59.575Z,987.24
2022-10-26T09:38:59.573Z,987.22
2022-10-26T09:39:59.544Z,987.22
2022-10-26T09:40:59.531Z,987.29
2022-10-26T09:41:59.544Z,987.36
2022-10-26T09:42:59.532Z,987.31
2022-10-26T09:43:59.494Z,987.30
2022-10-26T09:44:59.503Z,987.42
2022-10-26T09:45:59.514Z,987.36
2022-10-26T09:46:59.473Z,987.46
2022-10-26T09:48:02.674Z,987.35
2022-10-26T09:49:00.510Z,987.33
2022-10-26T09:49:59.446Z,987.38
2022-10-26T09:51:02.043Z,987.38
2022-10-26T09:52:00.486Z,987.40
2022-10-26T09:52:59.427Z,987.25
2022-10-26T09:53:59.406Z,987.33
2022-10-26T09:54:59.396Z,987.30
2022-10-26T09:55:59.387Z,987.28
2022-10-26T09:56:59.366Z,987.33
2022-10-26T09:57:59.348Z,987.34
2022-10-26T09:58:59.377Z,987.35
2022-10-26T09:59:59.327Z,987.32
2022-10-26T10:00:59.337Z,987.32
2022-10-26T10:01:59.347Z,987.25
2022-10-26T10:02:59.345Z,987.30
2022-10-26T10:03:59.328Z,987.27
2022-10-26T10:04:59.278Z,987.36
2022-10-26T10:05:59.288Z,987.37
2022-10-26T10:06:59.259Z,987.39
2022-10-26T10:07:59.260Z,987.38
2022-10-26T10:08:59.243Z,987.43
2022-10-26T10:09:59.238Z,987.43
2022-10-26T10:10:59.234Z,987.41
2022-10-26T10:11:59.200Z,987.40
2022-10-26T10:12:59.212Z,987.35
2022-10-26T10:13:59.192Z,987.38
2022-10-26T10:14:59.202Z,987.38
2022-10-26T10:15:59.181Z,987.33
2022-10-26T10:16:59.162Z,987.40
2022-10-26T10:17:59.522Z,987.41
2022-10-26T10:18:59.142Z,987.39
2022-10-26T10:19:59.133Z,987.37
2022-10-26T10:20:59.127Z,987.40
2022-10-26T10:21:59.094Z,987.42
2022-10-26T10:22:59.123Z,987.46
2022-10-26T10:23:59.074Z,987.46
2022-10-26T10:24:59.067Z,987.46
2022-10-26T10:25:59.074Z,987.46
2022-10-26T10:26:59.054Z,987.52
2022-10-26T10:27:59.055Z,987.47
2022-10-26T10:28:59.037Z,987.49
2022-10-26T10:30:03.078Z,987.54
2022-10-26T10:31:00.006Z,987.49
2022-10-26T10:31:58.996Z,987.55
2022-10-26T10:32:58.996Z,987.61
2022-10-26T10:33:58.967Z,987.63
2022-10-26T10:34:58.967Z,987.60
2022-10-26T10:35:58.965Z,987.58
2022-10-26T10:36:58.941Z,987.64
2022-10-26T10:37:58.937Z,987.59
2022-10-26T10:38:58.957Z,987.63
2022-10-26T10:39:59.018Z,987.57
2022-10-26T10:40:58.909Z,987.65
2022-10-26T10:41:58.896Z,987.57
2022-10-26T10:42:58.878Z,987.62
2022-10-26T10:43:58.890Z,987.66
2022-10-26T10:44:58.871Z,987.65
2022-10-26T10:45:59.792Z,987.64
2022-10-26T10:46:59.848Z,987.62
2022-10-26T10:47:58.830Z,987.66
2022-10-26T10:48:58.839Z,987.69
2022-10-26T10:49:58.810Z,987.68
2022-10-26T10:50:58.813Z,987.73
2022-10-26T10:51:58.791Z,987.72
2022-10-26T10:52:58.774Z,987.70
2022-10-26T10:53:58.782Z,987.72
2022-10-26T10:54:58.763Z,987.68
2022-10-26T10:55:58.755Z,987.73
2022-10-26T10:56:58.753Z,987.71
2022-10-26T10:57:58.724Z,987.70
2022-10-26T10:58:58.705Z,987.72
2022-10-26T10:59:58.694Z,987.65
2022-10-26T11:00:58.696Z,987.72
2022-10-26T11:01:58.804Z,987.65
2022-10-26T11:02:58.665Z,987.73
2022-10-26T11:03:58.676Z,987.71
2022-10-26T11:04:58.646Z,987.75
2022-10-26T11:05:58.639Z,987.68
2022-10-26T11:06:58.626Z,987.75
2022-10-26T11:07:58.616Z,987.70
2022-10-26T11:08:58.638Z,987.70
2022-10-26T11:09:58.590Z,987.71
2022-10-26T11:10:58.577Z,987.78
2022-10-26T11:11:58.567Z,987.72
2022-10-26T11:12:58.578Z,987.75
2022-10-26T11:13:58.570Z,987.67
2022-10-26T11:14:58.549Z,987.79
2022-10-26T11:15:58.540Z,987.75
2022-10-26T11:16:58.519Z,987.72
2022-10-26T11:17:58.518Z,987.72
2022-10-26T11:18:58.520Z,987.76
2022-10-26T11:19:58.489Z,987.71
2022-10-26T11:21:58.453Z,987.65
2022-10-26T11:22:58.561Z,987.65
2022-10-26T11:23:58.442Z,987.64
2022-10-26T11:24:58.448Z,987.65
2022-10-26T11:25:58.462Z,987.70
2022-10-26T11:26:58.410Z,987.67
2022-10-26T11:27:58.402Z,987.72
2022-10-26T11:28:58.384Z,987.70
2022-10-26T11:29:58.373Z,987.67
2022-10-26T11:30:58.372Z,987.68
2022-10-26T11:31:58.350Z,987.68
2022-10-26T11:32:58.344Z,987.71
2022-10-26T11:33:58.335Z,987.72
2022-10-26T11:34:58.354Z,987.69
2022-10-26T11:35:58.315Z,987.67
2022-10-26T11:36:58.314Z,987.66
2022-10-26T11:37:58.316Z,987.64
2022-10-26T11:38:59.236Z,987.64
2022-10-26T11:39:58.268Z,987.60
2022-10-26T11:40:58.287Z,987.65
2022-10-26T11:41:58.257Z,987.66
2022-10-26T11:42:58.257Z,987.61
2022-10-26T11:43:58.238Z,987.64
2022-10-26T11:44:58.234Z,987.60
2022-10-26T11:46:58.229Z,987.62
2022-10-26T11:47:58.192Z,987.69
2022-10-26T11:48:58.182Z,987.72
2022-10-26T11:49:58.160Z,987.69
2022-10-26T11:50:58.160Z,987.67
2022-10-26T11:51:58.181Z,987.68
2022-10-26T11:52:58.169Z,987.73
2022-10-26T11:53:58.132Z,987.70
2022-10-26T11:54:58.112Z,987.72
2022-10-26T11:55:58.123Z,987.81
2022-10-26T11:56:58.093Z,987.77
2022-10-26T11:57:58.095Z,987.72
2022-10-26T11:58:58.119Z,987.78
2022-10-26T11:59:58.085Z,987.80
2022-10-26T12:00:58.053Z,987.75
2022-10-26T12:01:58.035Z,987.71
2022-10-26T12:02:58.047Z,987.70
2022-10-26T12:03:58.025Z,987.75
2022-10-26T12:04:58.056Z,987.68
2022-10-26T12:05:57.995Z,987.62
2022-10-26T12:06:57.995Z,987.74
2022-10-26T12:07:57.987Z,987.76
2022-10-26T12:08:57.967Z,987.70
2022-10-26T12:09:57.968Z,987.72
2022-10-26T12:10:57.998Z,987.67
2022-10-26T12:11:57.983Z,987.73
2022-10-26T12:12:57.938Z,987.72
2022-10-26T12:13:57.907Z,987.74
2022-10-26T12:14:57.909Z,987.75
2022-10-26T12:16:03.457Z,987.76
2022-10-26T12:16:58.880Z,987.72
2022-10-26T12:17:57.863Z,987.74
2022-10-26T12:18:57.871Z,987.77
2022-10-26T12:19:57.873Z,987.78
2022-10-26T12:20:57.842Z,987.77
2022-10-26T12:21:57.831Z,987.77
2022-10-26T12:22:57.812Z,987.78
2022-10-26T12:23:57.811Z,987.72
2022-10-26T12:24:57.803Z,987.79
2022-10-26T12:25:57.803Z,987.76
2022-10-26T12:26:57.792Z,987.80
2022-10-26T12:27:57.774Z,987.75
2022-10-26T12:28:57.752Z,987.75
2022-10-26T12:29:57.735Z,987.65
2022-10-26T12:30:57.733Z,987.80
2022-10-26T12:31:57.755Z,987.73
2022-10-26T12:32:57.732Z,987.82
2022-10-26T12:33:57.727Z,987.75